ADDS METAR Data INFO
IDs: Format: Raw Decoded Include TAF

Data at: 0836 UTC 21 Oct 2017

KFMY 210753Z AUTO 06006KT 9SM CLR 21/21 A3001 RMK AO2 SLP165 T02110211
KFMY 210653Z AUTO 07005KT 8SM CLR 22/22 A3002 RMK AO2 SLP169 T02170217
KFMY 210553Z AUTO 06006KT 9SM CLR 22/22 A3003 RMK AO2 SLP172 60003 T02170217 10233 20217 58009
KFMY 210453Z AUTO 06007KT 9SM CLR 22/22 A3004 RMK AO2 SLP175 T02220217 403000217
KFMY 210353Z AUTO 06006KT 9SM CLR 22/22 A3006 RMK AO2 SLP181 T02220222
KFMY 210253Z AUTO 06006KT 9SM CLR 23/23 A3006 RMK AO2 SLP182 60003 T02280228 53005
KFMY 210153Z AUTO 06005KT 10SM SCT095 23/23 A3005 RMK AO2 SLP179 T02280228
KFMY 210053Z 09005KT 10SM FEW033 OVC065 23/23 A3005 RMK AO2 RAE51 SLP177 P0003 T02280228
KFMY 210011Z 08007KT 6SM -RA BR FEW008 BKN044 OVC060 23/23 A3004 RMK AO2 P0003 T02280228
KFMY 202353Z 08008KT 2 1/2SM RA BR FEW013 BKN032 OVC041 23/23 A3005 RMK AO2 SLP176 P0011 60013 T02280228 10300 20228 53018
KFMY 202349Z 09009KT 2 1/2SM -RA BR FEW013 BKN030 OVC041 23/23 A3004 RMK AO2 P0010
KFMY 202344Z 08010KT 1 3/4SM RA BR FEW013 BKN026 OVC041 23/23 A3004 RMK AO2 P0010 T02280228
KFMY 202337Z 09010KT 2SM +RA BR BKN028 OVC041 23/23 A3004 RMK AO2 P0004 T02280228
KFMY 202253Z 05010KT 9SM -RA FEW041 BKN055 OVC070 23/23 A3002 RMK AO2 RAB14 SLP166 P0002 T02330228
KFMY 202244Z 06011KT 3SM -RA BR FEW041 BKN049 OVC060 23/23 A3002 RMK AO2 RAB14 P0002 T02330228
KFMY 202236Z 07011G18KT 1 3/4SM RA BR BKN041 BKN049 OVC080 23/23 A3002 RMK AO2 RAB14 P0001 T02330228
KFMY 202153Z 09014G18KT 10SM BKN085 26/22 A3000 RMK AO2 SLP160 T02610217
KFMY 202053Z 06013KT 10SM BKN080 OVC100 26/22 A2999 RMK AO2 SLP159 T02610222 55007
KFMY 201953Z AUTO 09015G21KT 10SM SCT070 BKN085 29/22 A2999 RMK AO2 SLP158 T02890217
KFMY 201853Z 09013G22KT 10SM SCT034 29/22 A2999 RMK AO2 SLP158 T02890222
KFMY 201753Z 09012G21KT 10SM BKN033 29/22 A3002 RMK AO2 SLP166 T02940222 10294 20217 58018
KFMY 201653Z 08013G21KT 10SM FEW028 BKN055 28/22 A3004 RMK AO2 SLP176 T02780222
KFMY 201553Z 07012G18KT 9SM SCT026 BKN034 BKN044 27/22 A3006 RMK AO2 SLP181 T02670222
KFMY 201525Z 07015KT 9SM SCT026 BKN035 BKN042 27/22 A3006 RMK AO2 T02670222
KFMY 201453Z 07012G20KT 9SM BKN025 BKN035 26/22 A3007 RMK AO2 SLP184 T02610222 51002
KFMY 201448Z 07014G20KT 9SM BKN025 BKN029 26/22 A3007 RMK AO2
KFMY 201353Z 06013G19KT 9SM CLR 25/22 A3007 RMK AO2 SLP185 T02500222
KFMY 201253Z 06009KT 8SM CLR 23/22 A3006 RMK AO2 SLP182 T02330217
KFMY 201153Z 05007KT 8SM CLR 22/22 A3006 RMK AO2 SLP179 70001 T02170217 10228 20217 53008
KFMY 201053Z 05006KT 8SM CLR 22/22 A3005 RMK AO2 SLP176 T02170217
KFMY 200953Z AUTO 05006KT 9SM FEW025 BKN032 22/22 A3004 RMK AO2 SLP174 T02170217
KFMY 200853Z AUTO 05007KT 9SM CLR 22/22 A3003 RMK AO2 SLP171 T02220217 55004
KFMY 200753Z AUTO 04005KT 9SM CLR 22/22 A3003 RMK AO2 SLP170 T02220217
KFMY 200653Z AUTO 05006KT 9SM CLR 23/22 A3003 RMK AO2 SLP172 T02280222
KFMY 200553Z AUTO 05006KT 10SM CLR 23/22 A3005 RMK AO2 SLP176 T02280217 10267 20228 58005
KFMY 200453Z AUTO 06006KT 10SM CLR 23/22 A3005 RMK AO2 SLP179 T02330222 403110211
KFMY 200353Z AUTO 07006KT 10SM CLR 24/22 A3006 RMK AO2 SLP182 T02390217
KFMY 200253Z AUTO 06007KT 10SM CLR 24/22 A3006 RMK AO2 SLP181 T02440217 53017
KFMY 200153Z AUTO 07008KT 10SM CLR 25/22 A3004 RMK AO2 SLP173 T02500217
KFMY 200053Z 06010KT 10SM CLR 26/21 A3003 RMK AO2 SLP169 T02560211
KFMY 192353Z 07009KT 10SM CLR 27/22 A3001 RMK AO2 SLP164 60001 T02670222 10311 20261 53013
KFMY 192253Z 07008KT 10SM CLR 27/22 A2999 RMK AO2 SLP157 T02720222
KFMY 192153Z 07012KT 10SM CLR 28/22 A2998 RMK AO2 SLP152 T02830217
KFMY 192053Z 06007KT 10SM FEW050 28/23 A2997 RMK AO2 RAB13E33 SLP151 P0001 60001 T02830233 55008